Time;durP1;ratioP1;P1;durP2;ratioP2;P2;SDS_P1;SDS_P2;PMS_P1;PMS_P2;Temp;Humidity;BMP_temperature;BMP_pressure;BME280_temperature;BME280_humidity;BME280_pressure;Samples;Min_cycle;Max_cycle;Signal;HPM_P1;HPM_P2
2023/12/19 00:01:53;;;;;;;6.00;3.70;;;;;;;;;;5036300;28;20041;-67
2023/12/19 00:04:19;;;;;;;6.18;3.75;;;;;;;;;;5036508;28;20495;-67
2023/12/19 00:06:44;;;;;;;7.88;3.35;;;;;;;;;;5037493;28;20106;-67
2023/12/19 00:09:09;;;;;;;6.80;3.85;;;;;;;;;;5036608;28;20093;-67
2023/12/19 00:11:35;;;;;;;3.65;3.35;;;;;;;;;;5036924;28;20049;-67
2023/12/19 00:14:00;;;;;;;6.13;4.25;;;;;;;;;;5034528;28;20049;-67
2023/12/19 00:16:26;;;;;;;4.68;3.58;;;;;;;;;;5036847;28;20036;-67
2023/12/19 00:18:52;;;;;;;9.30;5.38;;;;;;;;;;5036775;28;20136;-67
2023/12/19 00:21:17;;;;;;;7.80;5.82;;;;;;;;;;5037199;28;20059;-67
2023/12/19 00:23:42;;;;;;;7.32;5.57;;;;;;;;;;5036283;28;20044;-67
2023/12/19 00:26:11;;;;;;;11.20;6.72;;;;;;;;;;5036337;28;20106;-67
2023/12/19 00:28:36;;;;;;;9.23;6.25;;;;;;;;;;5037317;28;20052;-67
2023/12/19 00:31:02;;;;;;;17.02;7.25;;;;;;;;;;5036480;28;20041;-67
2023/12/19 00:33:27;;;;;;;8.00;5.97;;;;;;;;;;5036535;28;20052;-67
2023/12/19 00:35:52;;;;;;;9.95;7.22;;;;;;;;;;5036273;28;20040;-67
2023/12/19 00:38:18;;;;;;;11.10;5.68;;;;;;;;;;5036440;28;20041;-67
2023/12/19 00:40:44;;;;;;;8.02;5.50;;;;;;;;;;5037052;28;20043;-67
2023/12/19 00:43:09;;;;;;;6.18;3.92;;;;;;;;;;5036584;28;20033;-67
2023/12/19 00:45:35;;;;;;;13.88;7.07;;;;;;;;;;5035652;28;20102;-66
2023/12/19 00:48:00;;;;;;;12.55;6.85;;;;;;;;;;5036121;28;20151;-67
2023/12/19 00:50:26;;;;;;;8.48;5.38;;;;;;;;;;5036645;28;20044;-67
2023/12/19 00:52:51;;;;;;;10.13;6.32;;;;;;;;;;5037150;28;20049;-67
2023/12/19 00:55:17;;;;;;;11.45;6.43;;;;;;;;;;5035383;28;20041;-67
2023/12/19 00:57:42;;;;;;;9.35;5.95;;;;;;;;;;5036920;28;20865;-67
2023/12/19 01:00:08;;;;;;;10.57;5.38;;;;;;;;;;5035606;28;20056;-67
2023/12/19 01:02:34;;;;;;;8.13;4.55;;;;;;;;;;5035465;28;20072;-67
2023/12/19 01:04:59;;;;;;;5.63;4.13;;;;;;;;;;5036114;28;20128;-67
2023/12/19 01:07:25;;;;;;;6.20;4.32;;;;;;;;;;5036135;28;20047;-67
2023/12/19 01:09:50;;;;;;;6.15;4.00;;;;;;;;;;5038251;28;20033;-67
2023/12/19 01:12:18;;;;;;;6.28;3.63;;;;;;;;;;5038167;28;21097;-67
2023/12/19 01:14:44;;;;;;;5.43;3.70;;;;;;;;;;5038635;28;20508;-67
2023/12/19 01:17:09;;;;;;;4.88;3.28;;;;;;;;;;5037044;28;20102;-67
2023/12/19 01:19:34;;;;;;;5.85;3.17;;;;;;;;;;5039126;28;20041;-67
2023/12/19 01:22:00;;;;;;;5.40;3.10;;;;;;;;;;5038162;28;20484;-67
2023/12/19 01:24:25;;;;;;;5.60;3.45;;;;;;;;;;5039277;28;20041;-67
2023/12/19 01:26:51;;;;;;;4.55;2.92;;;;;;;;;;5039418;28;20040;-67
2023/12/19 01:29:17;;;;;;;5.30;2.67;;;;;;;;;;5039796;28;20102;-67
2023/12/19 01:31:43;;;;;;;5.40;3.25;;;;;;;;;;5040085;28;20132;-67
2023/12/19 01:34:09;;;;;;;3.10;2.80;;;;;;;;;;5038161;28;20152;-67
2023/12/19 01:36:34;;;;;;;3.63;2.78;;;;;;;;;;5038538;28;20122;-67
2023/12/19 01:39:00;;;;;;;3.35;3.05;;;;;;;;;;5039576;28;20107;-67
2023/12/19 01:41:25;;;;;;;6.07;3.42;;;;;;;;;;5039589;28;20056;-67
2023/12/19 01:43:56;;;;;;;6.68;3.22;;;;;;;;;;5038443;28;20076;-67
2023/12/19 01:46:22;;;;;;;4.15;3.08;;;;;;;;;;5039063;28;20044;-67
2023/12/19 01:48:47;;;;;;;3.80;2.97;;;;;;;;;;5039932;28;20086;-67
2023/12/19 01:51:13;;;;;;;3.50;2.78;;;;;;;;;;5037927;28;20140;-67
2023/12/19 01:53:41;;;;;;;3.53;2.75;;;;;;;;;;5039732;28;20144;-67
2023/12/19 01:56:07;;;;;;;3.40;2.75;;;;;;;;;;5038012;28;20041;-67
2023/12/19 01:58:34;;;;;;;2.75;2.53;;;;;;;;;;5039534;28;20817;-67
2023/12/19 02:01:00;;;;;;;4.55;3.15;;;;;;;;;;5039698;28;20041;-67
2023/12/19 02:03:26;;;;;;;3.13;2.58;;;;;;;;;;5039176;28;20041;-67
2023/12/19 02:05:53;;;;;;;3.97;2.35;;;;;;;;;;5038101;28;20045;-67
2023/12/19 02:08:19;;;;;;;3.28;2.13;;;;;;;;;;5038846;28;20041;-67
2023/12/19 02:10:44;;;;;;;2.78;2.33;;;;;;;;;;5039120;28;20098;-67
2023/12/19 02:13:10;;;;;;;2.83;1.90;;;;;;;;;;5039090;28;20052;-67
2023/12/19 02:15:35;;;;;;;2.15;1.95;;;;;;;;;;5038846;28;20068;-67
2023/12/19 02:18:15;;;;;;;5.88;2.13;;;;;;;;;;5038265;28;20134;-67
2023/12/19 02:20:40;;;;;;;1.77;1.63;;;;;;;;;;5038178;28;20037;-67
2023/12/19 02:23:05;;;;;;;2.63;2.33;;;;;;;;;;5038596;28;20052;-67
2023/12/19 02:25:31;;;;;;;2.60;2.25;;;;;;;;;;5039025;28;20123;-67
2023/12/19 02:27:59;;;;;;;3.85;2.92;;;;;;;;;;5037507;28;20049;-67
2023/12/19 02:30:25;;;;;;;2.15;1.92;;;;;;;;;;5038298;28;20049;-67
2023/12/19 02:32:50;;;;;;;3.72;2.88;;;;;;;;;;5039045;28;20649;-67
2023/12/19 02:35:16;;;;;;;3.78;3.00;;;;;;;;;;5037798;28;20084;-67
2023/12/19 02:37:41;;;;;;;3.28;2.45;;;;;;;;;;5038921;28;20033;-67
2023/12/19 02:40:07;;;;;;;4.03;2.33;;;;;;;;;;5036749;28;20049;-67
2023/12/19 02:42:33;;;;;;;3.10;2.22;;;;;;;;;;5038876;28;20506;-67
2023/12/19 02:44:58;;;;;;;2.55;2.25;;;;;;;;;;5038186;28;20041;-66
2023/12/19 02:47:23;;;;;;;2.95;2.22;;;;;;;;;;5038263;28;20052;-67
2023/12/19 02:49:49;;;;;;;2.67;2.45;;;;;;;;;;5037319;28;20041;-68
2023/12/19 02:52:14;;;;;;;2.70;2.30;;;;;;;;;;5038200;28;20128;-67
2023/12/19 02:54:40;;;;;;;5.10;3.00;;;;;;;;;;5037980;28;20475;-67
2023/12/19 02:57:05;;;;;;;2.95;2.45;;;;;;;;;;5038164;28;20075;-67
2023/12/19 02:59:30;;;;;;;3.83;2.90;;;;;;;;;;5038143;28;20033;-67
2023/12/19 03:01:56;;;;;;;4.80;3.20;;;;;;;;;;5036966;28;20063;-68
2023/12/19 03:04:21;;;;;;;4.50;2.72;;;;;;;;;;5037426;28;20094;-67
2023/12/19 03:06:46;;;;;;;3.30;2.05;;;;;;;;;;5038061;28;20053;-67
2023/12/19 03:09:12;;;;;;;2.28;2.08;;;;;;;;;;5037263;28;20064;-67
2023/12/19 03:11:38;;;;;;;3.92;2.53;;;;;;;;;;5037742;28;20086;-67
2023/12/19 03:14:03;;;;;;;3.45;2.40;;;;;;;;;;5037389;28;20080;-67
2023/12/19 03:16:29;;;;;;;2.90;2.35;;;;;;;;;;5036953;28;20468;-67
2023/12/19 03:18:54;;;;;;;3.28;2.30;;;;;;;;;;5038042;28;20114;-67
2023/12/19 03:21:19;;;;;;;6.75;2.42;;;;;;;;;;5037421;28;20052;-67
2023/12/19 03:23:45;;;;;;;3.67;2.00;;;;;;;;;;5036870;28;20553;-67
2023/12/19 03:26:10;;;;;;;2.80;2.42;;;;;;;;;;5036767;28;20044;-67
2023/12/19 03:28:37;;;;;;;3.40;2.50;;;;;;;;;;5037875;28;20135;-67
2023/12/19 03:31:03;;;;;;;2.28;1.85;;;;;;;;;;5036977;28;20501;-67
2023/12/19 03:33:29;;;;;;;2.10;1.98;;;;;;;;;;5036608;28;20051;-67
2023/12/19 03:35:55;;;;;;;2.80;2.35;;;;;;;;;;5036752;28;20028;-67
2023/12/19 03:38:21;;;;;;;2.72;2.40;;;;;;;;;;5035722;28;20037;-67
2023/12/19 03:40:46;;;;;;;3.47;2.15;;;;;;;;;;5037816;28;20064;-67
2023/12/19 03:43:12;;;;;;;3.25;2.50;;;;;;;;;;5037081;28;20045;-67
2023/12/19 03:45:37;;;;;;;3.10;2.65;;;;;;;;;;5036466;28;20841;-66
2023/12/19 03:48:03;;;;;;;2.67;2.20;;;;;;;;;;5036988;28;20045;-67
2023/12/19 03:50:28;;;;;;;4.88;2.15;;;;;;;;;;5035547;28;20148;-67
2023/12/19 03:52:54;;;;;;;3.60;2.22;;;;;;;;;;5037376;28;20446;-66
2023/12/19 03:55:20;;;;;;;2.53;2.33;;;;;;;;;;5035878;28;20079;-67
2023/12/19 03:57:45;;;;;;;3.92;2.63;;;;;;;;;;5037238;28;20076;-67
2023/12/19 04:00:11;;;;;;;3.75;3.20;;;;;;;;;;5036189;28;20106;-66
2023/12/19 04:02:36;;;;;;;4.65;2.92;;;;;;;;;;5037138;28;20045;-66
2023/12/19 04:05:02;;;;;;;4.28;2.90;;;;;;;;;;5036365;28;20068;-66
2023/12/19 04:07:28;;;;;;;3.40;2.70;;;;;;;;;;5031666;28;20106;-67
2023/12/19 04:09:54;;;;;;;3.90;2.75;;;;;;;;;;5036481;28;20514;-67
2023/12/19 04:12:19;;;;;;;4.22;2.30;;;;;;;;;;5035112;28;20045;-66
2023/12/19 04:14:45;;;;;;;2.10;1.90;;;;;;;;;;5035605;28;20043;-67
2023/12/19 04:17:11;;;;;;;2.92;2.33;;;;;;;;;;5036283;28;20060;-66
2023/12/19 04:19:36;;;;;;;7.93;3.17;;;;;;;;;;5037283;28;20813;-66
2023/12/19 04:22:02;;;;;;;4.65;2.65;;;;;;;;;;5035070;28;20534;-67
2023/12/19 04:24:28;;;;;;;2.63;2.22;;;;;;;;;;5036347;28;20389;-66
2023/12/19 04:26:53;;;;;;;3.65;2.33;;;;;;;;;;5035799;28;20056;-66
2023/12/19 04:29:19;;;;;;;2.78;2.53;;;;;;;;;;5035816;28;20049;-67
2023/12/19 04:31:44;;;;;;;4.00;2.70;;;;;;;;;;5035823;28;20052;-66
2023/12/19 04:34:10;;;;;;;2.67;2.17;;;;;;;;;;5035278;28;20148;-67
2023/12/19 04:36:35;;;;;;;3.72;2.28;;;;;;;;;;5018881;28;20136;-67
2023/12/19 04:39:00;;;;;;;4.93;2.70;;;;;;;;;;5036459;28;20037;-66
2023/12/19 04:41:26;;;;;;;2.78;2.20;;;;;;;;;;5035910;28;20051;-66
2023/12/19 04:43:51;;;;;;;2.30;2.10;;;;;;;;;;5055116;28;20055;-67
2023/12/19 04:46:17;;;;;;;2.45;2.25;;;;;;;;;;5060572;28;20082;-67
2023/12/19 04:48:42;;;;;;;3.42;2.55;;;;;;;;;;5060514;28;20139;-66
2023/12/19 04:51:22;;;;;;;2.72;2.20;;;;;;;;;;5060277;28;20123;-67
2023/12/19 04:53:48;;;;;;;2.53;2.30;;;;;;;;;;5059671;28;20449;-66
2023/12/19 04:56:14;;;;;;;3.95;2.60;;;;;;;;;;5059373;28;20048;-66
2023/12/19 04:58:40;;;;;;;3.08;2.75;;;;;;;;;;5060833;28;20041;-67
2023/12/19 05:01:06;;;;;;;5.45;3.83;;;;;;;;;;5060713;28;20112;-66
2023/12/19 05:03:33;;;;;;;4.90;3.50;;;;;;;;;;5059692;28;20044;-67
2023/12/19 05:05:59;;;;;;;6.22;3.60;;;;;;;;;;5059685;28;20438;-66
2023/12/19 05:08:25;;;;;;;2.50;2.30;;;;;;;;;;5059659;28;20040;-66
2023/12/19 05:10:50;;;;;;;6.50;2.75;;;;;;;;;;5060252;28;20407;-66
2023/12/19 05:13:15;;;;;;;3.25;2.70;;;;;;;;;;5058953;28;20132;-66
2023/12/19 05:15:41;;;;;;;2.65;2.45;;;;;;;;;;5059863;28;20056;-66
2023/12/19 05:18:06;;;;;;;5.03;3.20;;;;;;;;;;5059416;28;20059;-66
2023/12/19 05:20:31;;;;;;;3.78;2.92;;;;;;;;;;5058944;28;20037;-66
2023/12/19 05:22:57;;;;;;;4.50;2.63;;;;;;;;;;5059679;28;21081;-68
2023/12/19 05:25:23;;;;;;;3.42;2.42;;;;;;;;;;5058064;28;20060;-68
2023/12/19 05:27:49;;;;;;;4.18;3.00;;;;;;;;;;5059824;28;20037;-68
2023/12/19 05:30:15;;;;;;;2.13;1.80;;;;;;;;;;5058105;28;20051;-68
2023/12/19 05:32:40;;;;;;;3.83;2.70;;;;;;;;;;5059886;28;20049;-67
2023/12/19 05:35:06;;;;;;;4.40;2.72;;;;;;;;;;5058056;28;20041;-68
2023/12/19 05:37:32;;;;;;;2.88;2.38;;;;;;;;;;5059045;28;20128;-69
2023/12/19 05:39:57;;;;;;;4.85;2.42;;;;;;;;;;5058492;28;20055;-67
2023/12/19 05:42:23;;;;;;;2.63;2.35;;;;;;;;;;5058890;28;20091;-68
2023/12/19 05:44:49;;;;;;;2.45;2.25;;;;;;;;;;5058963;28;20060;-68
2023/12/19 05:47:14;;;;;;;3.25;2.50;;;;;;;;;;5058439;28;20040;-67
2023/12/19 05:49:40;;;;;;;2.70;2.22;;;;;;;;;;5055843;28;20623;-67
2023/12/19 05:52:06;;;;;;;2.72;2.35;;;;;;;;;;5057370;28;20055;-67
2023/12/19 05:54:31;;;;;;;3.38;2.38;;;;;;;;;;5057566;28;20051;-67
2023/12/19 05:56:57;;;;;;;2.13;1.92;;;;;;;;;;5058464;28;20044;-67
2023/12/19 05:59:22;;;;;;;2.50;2.30;;;;;;;;;;5057517;28;20090;-67
2023/12/19 06:01:47;;;;;;;1.85;1.45;;;;;;;;;;5057400;28;20048;-67
2023/12/19 06:04:14;;;;;;;3.55;2.65;;;;;;;;;;5057577;28;20127;-67
2023/12/19 06:06:43;;;;;;;2.78;2.50;;;;;;;;;;5058533;28;20051;-67
2023/12/19 06:09:12;;;;;;;2.97;2.22;;;;;;;;;;5050968;28;20742;-67
2023/12/19 06:11:38;;;;;;;3.65;2.60;;;;;;;;;;5030393;28;20053;-66
2023/12/19 06:14:04;;;;;;;3.10;2.40;;;;;;;;;;5026876;28;20048;-68
2023/12/19 06:16:30;;;;;;;3.63;2.78;;;;;;;;;;5030632;28;20047;-67
2023/12/19 06:18:55;;;;;;;2.92;1.98;;;;;;;;;;5018673;28;20041;-68
2023/12/19 06:21:21;;;;;;;2.47;2.28;;;;;;;;;;5017942;28;20050;-68
2023/12/19 06:23:46;;;;;;;3.00;2.47;;;;;;;;;;5005727;28;20539;-67
2023/12/19 06:26:11;;;;;;;2.50;2.30;;;;;;;;;;5017399;28;20057;-68
2023/12/19 06:28:38;;;;;;;1.63;1.52;;;;;;;;;;5018927;28;20049;-68
2023/12/19 06:31:05;;;;;;;3.60;2.28;;;;;;;;;;5035945;28;20042;-66
2023/12/19 06:33:30;;;;;;;2.85;2.20;;;;;;;;;;5018543;28;20065;-67
2023/12/19 06:35:55;;;;;;;3.20;2.70;;;;;;;;;;5019454;28;20156;-67
2023/12/19 06:38:21;;;;;;;2.85;2.05;;;;;;;;;;5019977;28;20440;-67
2023/12/19 06:40:46;;;;;;;2.92;2.25;;;;;;;;;;5020408;28;20046;-67
2023/12/19 06:43:12;;;;;;;2.60;2.30;;;;;;;;;;5020003;28;20099;-67
2023/12/19 06:45:37;;;;;;;2.67;2.08;;;;;;;;;;5018799;28;20045;-67
2023/12/19 06:48:03;;;;;;;2.03;1.48;;;;;;;;;;5019340;28;20481;-67
2023/12/19 06:50:28;;;;;;;3.72;3.00;;;;;;;;;;5018834;28;20057;-67
2023/12/19 06:52:54;;;;;;;3.45;2.30;;;;;;;;;;5020228;28;20049;-67
2023/12/19 06:55:20;;;;;;;3.70;2.42;;;;;;;;;;5018759;28;20053;-67
2023/12/19 06:57:46;;;;;;;3.33;1.67;;;;;;;;;;5019759;28;20084;-67
2023/12/19 07:00:12;;;;;;;2.38;1.75;;;;;;;;;;5014449;28;20481;-67
2023/12/19 07:02:37;;;;;;;2.83;2.00;;;;;;;;;;5019981;28;20048;-67
2023/12/19 07:05:04;;;;;;;1.38;1.33;;;;;;;;;;5020401;28;20045;-67
2023/12/19 07:07:29;;;;;;;2.30;2.00;;;;;;;;;;5018549;28;20408;-67
2023/12/19 07:09:54;;;;;;;2.53;2.08;;;;;;;;;;5015841;28;20076;-68
2023/12/19 07:12:20;;;;;;;1.65;1.55;;;;;;;;;;5022684;28;20107;-67
2023/12/19 07:14:46;;;;;;;2.55;1.98;;;;;;;;;;5015534;28;20054;-67
2023/12/19 07:17:11;;;;;;;2.30;2.00;;;;;;;;;;5018523;28;20131;-67
2023/12/19 07:19:36;;;;;;;2.45;1.83;;;;;;;;;;5016988;28;20041;-67
2023/12/19 07:22:02;;;;;;;3.25;2.20;;;;;;;;;;5015718;28;20130;-67
2023/12/19 07:24:28;;;;;;;2.35;2.00;;;;;;;;;;5016566;28;20680;-68
2023/12/19 07:26:57;;;;;;;3.13;2.10;;;;;;;;;;5017044;28;20038;-68
2023/12/19 07:29:22;;;;;;;2.85;2.10;;;;;;;;;;5020311;28;20107;-67
2023/12/19 07:31:47;;;;;;;2.95;2.10;;;;;;;;;;5015605;28;20049;-68
2023/12/19 07:34:13;;;;;;;2.83;1.90;;;;;;;;;;5016604;28;20088;-67
2023/12/19 07:36:38;;;;;;;2.78;2.10;;;;;;;;;;5016481;28;20053;-67
2023/12/19 07:39:04;;;;;;;1.67;1.58;;;;;;;;;;5017005;28;20912;-67
2023/12/19 07:41:31;;;;;;;1.73;1.63;;;;;;;;;;5016701;28;20096;-67
2023/12/19 07:43:57;;;;;;;4.43;1.98;;;;;;;;;;5019571;28;20535;-68
2023/12/19 07:46:23;;;;;;;2.08;1.88;;;;;;;;;;5019641;28;20049;-68
2023/12/19 07:48:48;;;;;;;2.72;1.90;;;;;;;;;;5016474;28;20056;-68
2023/12/19 07:51:19;;;;;;;3.83;2.40;;;;;;;;;;5018373;28;20068;-68
2023/12/19 07:53:45;;;;;;;2.63;1.98;;;;;;;;;;5017367;28;20586;-68
2023/12/19 07:56:10;;;;;;;2.28;2.08;;;;;;;;;;5018605;28;20049;-68
2023/12/19 07:58:36;;;;;;;2.03;1.83;;;;;;;;;;5016948;28;20061;-68
2023/12/19 08:01:01;;;;;;;2.45;2.25;;;;;;;;;;5017780;28;20128;-68
2023/12/19 08:03:28;;;;;;;2.45;2.25;;;;;;;;;;5016502;28;20041;-69
2023/12/19 08:05:56;;;;;;;2.75;2.20;;;;;;;;;;5017741;28;20033;-69
2023/12/19 08:08:22;;;;;;;2.85;2.25;;;;;;;;;;5018172;28;20084;-68
2023/12/19 08:10:48;;;;;;;3.05;2.10;;;;;;;;;;5017055;28;20055;-68
2023/12/19 08:13:14;;;;;;;2.42;2.00;;;;;;;;;;5018286;28;20132;-68
2023/12/19 08:15:42;;;;;;;7.20;2.72;;;;;;;;;;5016105;28;20041;-68
2023/12/19 08:18:09;;;;;;;2.80;2.20;;;;;;;;;;5020911;28;20160;-68
2023/12/19 08:20:35;;;;;;;2.70;2.00;;;;;;;;;;5020919;28;20069;-69
2023/12/19 08:23:00;;;;;;;3.30;2.17;;;;;;;;;;5022082;28;20144;-68
2023/12/19 08:25:26;;;;;;;3.58;1.83;;;;;;;;;;5020498;28;20132;-68
2023/12/19 08:27:51;;;;;;;2.80;2.03;;;;;;;;;;5021277;28;20496;-69
2023/12/19 08:30:17;;;;;;;2.33;2.10;;;;;;;;;;5038381;28;20136;-67
2023/12/19 08:32:42;;;;;;;3.63;1.95;;;;;;;;;;5040359;28;20057;-67
2023/12/19 08:35:08;;;;;;;2.80;2.33;;;;;;;;;;5041065;28;20448;-67
2023/12/19 08:37:33;;;;;;;3.42;2.28;;;;;;;;;;5040718;28;20118;-67
2023/12/19 08:40:02;;;;;;;2.60;1.95;;;;;;;;;;5040865;28;20037;-68
2023/12/19 08:42:28;;;;;;;5.00;2.53;;;;;;;;;;5038645;28;20517;-68
2023/12/19 08:44:55;;;;;;;2.97;2.50;;;;;;;;;;5039307;28;20087;-68
2023/12/19 08:47:21;;;;;;;2.67;2.00;;;;;;;;;;5039331;28;20091;-68
2023/12/19 08:49:47;;;;;;;2.25;1.92;;;;;;;;;;5039075;28;20053;-68
2023/12/19 08:52:13;;;;;;;2.42;2.10;;;;;;;;;;5037861;28;20060;-68
2023/12/19 08:54:38;;;;;;;2.15;1.92;;;;;;;;;;5039074;28;20060;-68
2023/12/19 08:57:04;;;;;;;2.20;1.80;;;;;;;;;;5040269;28;20499;-68
2023/12/19 08:59:31;;;;;;;3.63;1.63;;;;;;;;;;5040559;28;20045;-68
2023/12/19 09:01:57;;;;;;;2.83;2.20;;;;;;;;;;5040056;28;20045;-67
2023/12/19 09:04:22;;;;;;;3.15;1.98;;;;;;;;;;5039739;28;20060;-68
2023/12/19 09:06:48;;;;;;;2.13;1.90;;;;;;;;;;5040134;28;20048;-68
2023/12/19 09:09:14;;;;;;;1.70;1.60;;;;;;;;;;5040403;28;21137;-68
2023/12/19 09:11:39;;;;;;;3.08;1.77;;;;;;;;;;5040492;28;20060;-68
2023/12/19 09:14:05;;;;;;;57.55;7.07;;;;;;;;;;5039576;28;20033;-68
2023/12/19 09:16:31;;;;;;;15.13;3.30;;;;;;;;;;5039030;28;20044;-68
2023/12/19 09:18:56;;;;;;;22.02;3.90;;;;;;;;;;5040409;28;20076;-68
2023/12/19 09:21:23;;;;;;;9.57;3.40;;;;;;;;;;5040523;28;20132;-68
2023/12/19 09:23:48;;;;;;;6.10;3.05;;;;;;;;;;5039752;28;20502;-68
2023/12/19 09:26:14;;;;;;;5.95;3.10;;;;;;;;;;5037662;28;20631;-68
2023/12/19 09:28:40;;;;;;;15.23;4.70;;;;;;;;;;5039928;28;20088;-68
2023/12/19 09:31:08;;;;;;;6.32;3.53;;;;;;;;;;5039983;28;20462;-68
2023/12/19 09:33:38;;;;;;;8.80;4.45;;;;;;;;;;5039580;28;20044;-68
2023/12/19 09:36:10;;;;;;;10.50;3.67;;;;;;;;;;5039295;28;20148;-68
2023/12/19 09:38:37;;;;;;;6.75;3.45;;;;;;;;;;5039529;28;20040;-68
2023/12/19 09:41:04;;;;;;;3.60;2.30;;;;;;;;;;5040077;28;20049;-68
2023/12/19 09:43:33;;;;;;;3.03;2.00;;;;;;;;;;5039751;28;20262;-68
2023/12/19 09:46:01;;;;;;;5.20;2.20;;;;;;;;;;5038866;28;20051;-68
2023/12/19 09:48:33;;;;;;;5.32;2.65;;;;;;;;;;5039043;28;20503;-68
2023/12/19 09:51:04;;;;;;;4.47;2.42;;;;;;;;;;5039375;28;20060;-68
2023/12/19 09:53:34;;;;;;;3.95;2.28;;;;;;;;;;5039419;28;20191;-68
2023/12/19 09:56:00;;;;;;;3.60;2.28;;;;;;;;;;5038737;28;20032;-69
2023/12/19 09:58:31;;;;;;;2.55;2.15;;;;;;;;;;5038840;28;20135;-69
2023/12/19 10:01:00;;;;;;;3.57;2.17;;;;;;;;;;5039588;28;20091;-69
2023/12/19 10:03:29;;;;;;;5.55;2.05;;;;;;;;;;5039681;28;20045;-69
2023/12/19 10:05:56;;;;;;;2.20;2.00;;;;;;;;;;5038401;28;20546;-69
2023/12/19 10:08:21;;;;;;;1.88;1.77;;;;;;;;;;5039234;28;20049;-68
2023/12/19 10:10:57;;;;;;;2.17;1.63;;;;;;;;;;5037920;28;20045;-69
2023/12/19 10:13:33;;;;;;;3.78;2.20;;;;;;;;;;5039661;28;20152;-68
2023/12/19 10:16:09;;;;;;;3.42;2.40;;;;;;;;;;5038204;28;20183;-69
2023/12/19 10:18:36;;;;;;;1.85;1.73;;;;;;;;;;5038459;28;20223;-69
2023/12/19 10:21:14;;;;;;;3.15;1.92;;;;;;;;;;5038595;28;20129;-69
2023/12/19 10:23:43;;;;;;;2.47;1.90;;;;;;;;;;5038479;28;20138;-69
2023/12/19 10:26:10;;;;;;;2.08;1.70;;;;;;;;;;5038606;28;20064;-69
2023/12/19 10:28:38;;;;;;;2.00;1.80;;;;;;;;;;5038701;28;20052;-68
2023/12/19 10:31:16;;;;;;;3.20;2.05;;;;;;;;;;5038958;28;20467;-66
2023/12/19 10:33:43;;;;;;;2.45;1.90;;;;;;;;;;5038675;28;20048;-69
2023/12/19 10:36:22;;;;;;;2.50;2.00;;;;;;;;;;5038029;28;20459;-67
2023/12/19 10:38:48;;;;;;;2.22;1.98;;;;;;;;;;5038196;28;20064;-66
2023/12/19 10:41:22;;;;;;;5.03;1.83;;;;;;;;;;5038055;28;20041;-67
2023/12/19 10:43:52;;;;;;;4.88;2.38;;;;;;;;;;5037350;28;20049;-67
2023/12/19 10:46:19;;;;;;;4.40;2.42;;;;;;;;;;5036300;28;20059;-67
2023/12/19 10:48:47;;;;;;;3.92;2.65;;;;;;;;;;5038547;28;20045;-66
2023/12/19 10:51:19;;;;;;;3.00;2.30;;;;;;;;;;5038542;28;20538;-67
2023/12/19 10:53:58;;;;;;;3.15;2.70;;;;;;;;;;5037530;28;20519;-67
2023/12/19 10:56:26;;;;;;;2.92;2.03;;;;;;;;;;5058253;28;20127;-67
2023/12/19 10:58:58;;;;;;;2.80;2.03;;;;;;;;;;5042722;28;20073;-67
2023/12/19 11:01:26;;;;;;;4.32;2.00;;;;;;;;;;5018929;28;20207;-67
2023/12/19 11:03:59;;;;;;;3.35;1.90;;;;;;;;;;5019220;28;20507;-67
2023/12/19 11:06:31;;;;;;;4.60;2.70;;;;;;;;;;5020045;28;20060;-67
2023/12/19 11:09:04;;;;;;;3.50;2.47;;;;;;;;;;5023058;28;20040;-67
2023/12/19 11:11:37;;;;;;;4.35;2.92;;;;;;;;;;5050266;28;20066;-67
2023/12/19 11:14:03;;;;;;;5.20;3.85;;;;;;;;;;5050871;28;20056;-67
2023/12/19 11:16:52;;;;;;;5.65;3.70;;;;;;;;;;5055877;28;20395;-67
2023/12/19 11:19:22;;;;;;;3.97;3.10;;;;;;;;;;5047664;28;20048;-67
2023/12/19 11:22:00;;;;;;;5.03;3.53;;;;;;;;;;5042253;28;20243;-67
2023/12/19 11:24:42;;;;;;;4.38;2.72;;;;;;;;;;5056798;28;20048;-67
2023/12/19 11:27:19;;;;;;;3.10;2.45;;;;;;;;;;5034577;28;20049;-67
2023/12/19 11:29:51;;;;;;;3.88;2.60;;;;;;;;;;5020752;28;20049;-67
2023/12/19 11:32:28;;;;;;;2.05;1.83;;;;;;;;;;5018843;28;20088;-66
2023/12/19 11:34:54;;;;;;;2.20;1.55;;;;;;;;;;5018835;28;20053;-66
2023/12/19 11:37:21;;;;;;;1.63;1.52;;;;;;;;;;5019122;28;20045;-65
2023/12/19 11:39:46;;;;;;;3.15;2.05;;;;;;;;;;5021237;28;20045;-67
2023/12/19 11:42:41;;;;;;;2.15;1.77;;;;;;;;;;5018196;28;20122;-67
2023/12/19 11:45:16;;;;;;;8.10;2.22;;;;;;;;;;5011930;28;20144;-67
2023/12/19 11:47:42;;;;;;;3.60;2.60;;;;;;;;;;5020893;28;20055;-67
2023/12/19 11:50:07;;;;;;;5.28;3.08;;;;;;;;;;5020041;28;20087;-67
2023/12/19 11:52:37;;;;;;;5.40;3.05;;;;;;;;;;5017963;28;20629;-67
2023/12/19 11:55:05;;;;;;;8.70;3.45;;;;;;;;;;5018395;28;20068;-67
2023/12/19 11:57:31;;;;;;;7.63;3.28;;;;;;;;;;5023794;28;20055;-66
2023/12/19 11:59:57;;;;;;;2.63;2.08;;;;;;;;;;5020737;28;20045;-66
2023/12/19 12:02:41;;;;;;;3.33;2.30;;;;;;;;;;5019252;28;20554;-65
2023/12/19 12:05:13;;;;;;;3.83;2.72;;;;;;;;;;5018078;28;20041;-67
2023/12/19 12:07:41;;;;;;;5.18;2.45;;;;;;;;;;5021754;28;20049;-67
2023/12/19 12:10:09;;;;;;;4.82;2.90;;;;;;;;;;5017546;28;20129;-67
2023/12/19 12:12:35;;;;;;;8.82;3.08;;;;;;;;;;5018986;28;20045;-67
2023/12/19 12:15:10;;;;;;;2.92;2.08;;;;;;;;;;5017907;28;20048;-67
2023/12/19 12:17:36;;;;;;;3.22;1.92;;;;;;;;;;5018984;28;20049;-67
2023/12/19 12:20:03;;;;;;;5.18;2.00;;;;;;;;;;5017434;28;20781;-66
2023/12/19 12:22:30;;;;;;;3.70;2.35;;;;;;;;;;5023252;28;20575;-66
2023/12/19 12:24:56;;;;;;;4.45;2.22;;;;;;;;;;5018102;28;20459;-66
2023/12/19 12:27:22;;;;;;;1.73;1.60;;;;;;;;;;5019370;28;20077;-66
2023/12/19 12:29:47;;;;;;;2.25;1.52;;;;;;;;;;5020514;28;20092;-66
2023/12/19 12:32:14;;;;;;;1.77;1.48;;;;;;;;;;5019928;28;20048;-66
2023/12/19 12:34:39;;;;;;;4.47;1.80;;;;;;;;;;5019478;28;20060;-67
2023/12/19 12:37:05;;;;;;;3.80;1.67;;;;;;;;;;5028830;28;20452;-65
2023/12/19 12:39:31;;;;;;;3.08;2.17;;;;;;;;;;5049459;28;20052;-67
2023/12/19 12:42:03;;;;;;;7.45;1.80;;;;;;;;;;5054754;28;20049;-66
2023/12/19 12:44:29;;;;;;;2.85;1.73;;;;;;;;;;5053728;28;20186;-66
2023/12/19 12:46:54;;;;;;;3.28;1.67;;;;;;;;;;5054585;28;20156;-66
2023/12/19 12:49:19;;;;;;;2.72;1.60;;;;;;;;;;5055400;28;20059;-67
2023/12/19 12:51:46;;;;;;;1.55;1.38;;;;;;;;;;5055734;28;20407;-65
2023/12/19 12:54:16;;;;;;;1.50;1.40;;;;;;;;;;5054985;28;20057;-67
2023/12/19 12:56:42;;;;;;;3.10;1.98;;;;;;;;;;5055376;28;20138;-67
2023/12/19 12:59:09;;;;;;;6.90;1.70;;;;;;;;;;5055943;28;20072;-69
2023/12/19 13:01:38;;;;;;;2.25;1.98;;;;;;;;;;5055855;28;20089;-67
2023/12/19 13:04:07;;;;;;;4.10;1.70;;;;;;;;;;5056176;28;20068;-67
2023/12/19 13:06:34;;;;;;;3.33;1.70;;;;;;;;;;5061109;28;20384;-67
2023/12/19 13:08:59;;;;;;;2.15;1.40;;;;;;;;;;5056122;28;20291;-68
2023/12/19 13:11:25;;;;;;;3.08;1.75;;;;;;;;;;5058063;28;20498;-66
2023/12/19 13:13:50;;;;;;;4.40;2.08;;;;;;;;;;5058814;28;20381;-66
2023/12/19 13:16:16;;;;;;;1.75;1.65;;;;;;;;;;5056938;28;20475;-66
2023/12/19 13:18:44;;;;;;;2.55;1.73;;;;;;;;;;5059848;28;20045;-67
2023/12/19 13:21:11;;;;;;;2.55;1.67;;;;;;;;;;5059379;28;20056;-66
2023/12/19 13:23:37;;;;;;;2.20;1.48;;;;;;;;;;5060177;28;20048;-65
2023/12/19 13:26:02;;;;;;;4.30;1.70;;;;;;;;;;5059065;28;20051;-67
2023/12/19 13:28:28;;;;;;;1.60;1.50;;;;;;;;;;5059365;28;20068;-67
2023/12/19 13:30:54;;;;;;;2.85;1.83;;;;;;;;;;5059490;28;20048;-66
2023/12/19 13:33:21;;;;;;;4.30;2.17;;;;;;;;;;5059794;28;20070;-67
2023/12/19 13:35:47;;;;;;;2.83;2.28;;;;;;;;;;5059554;28;20041;-66
2023/12/19 13:38:13;;;;;;;3.25;2.08;;;;;;;;;;5058490;28;20056;-66
2023/12/19 13:40:38;;;;;;;2.33;1.90;;;;;;;;;;5058634;28;20082;-67
2023/12/19 13:43:04;;;;;;;3.17;2.17;;;;;;;;;;5059113;28;20060;-68
2023/12/19 13:45:32;;;;;;;3.15;1.88;;;;;;;;;;5059877;28;20054;-67
2023/12/19 13:47:58;;;;;;;2.40;1.75;;;;;;;;;;5058385;28;20043;-68
2023/12/19 13:50:24;;;;;;;4.18;2.35;;;;;;;;;;5057587;28;20078;-68
2023/12/19 13:52:50;;;;;;;2.35;1.70;;;;;;;;;;5058721;28;20044;-68
2023/12/19 13:55:16;;;;;;;5.32;2.00;;;;;;;;;;5055286;28;20059;-67
2023/12/19 13:57:41;;;;;;;1.70;1.60;;;;;;;;;;5054379;28;20060;-67
2023/12/19 14:00:14;;;;;;;2.42;1.92;;;;;;;;;;5055558;28;20055;-67
2023/12/19 14:02:41;;;;;;;3.78;1.95;;;;;;;;;;5028150;28;20164;-66
2023/12/19 14:05:06;;;;;;;3.90;2.20;;;;;;;;;;5026915;28;20133;-68
2023/12/19 14:07:33;;;;;;;2.03;1.70;;;;;;;;;;5042231;28;20078;-68
2023/12/19 14:10:00;;;;;;;1.95;1.75;;;;;;;;;;5034755;28;20048;-68
2023/12/19 14:12:26;;;;;;;3.88;1.80;;;;;;;;;;5036810;28;20053;-68
2023/12/19 14:14:52;;;;;;;1.73;1.60;;;;;;;;;;5040990;28;20143;-67
2023/12/19 14:17:19;;;;;;;2.05;1.85;;;;;;;;;;5042638;28;20087;-68
2023/12/19 14:19:45;;;;;;;4.57;2.10;;;;;;;;;;5039928;28;20049;-67
2023/12/19 14:22:10;;;;;;;2.92;2.00;;;;;;;;;;5019946;28;20049;-67
2023/12/19 14:24:36;;;;;;;4.60;1.90;;;;;;;;;;5024609;28;20579;-67
2023/12/19 14:27:03;;;;;;;3.05;1.73;;;;;;;;;;5039780;28;20045;-67
2023/12/19 14:29:28;;;;;;;1.90;1.80;;;;;;;;;;5038790;28;20055;-67
2023/12/19 14:31:54;;;;;;;4.97;2.17;;;;;;;;;;5038425;28;20037;-67
2023/12/19 14:34:19;;;;;;;3.60;2.03;;;;;;;;;;5040999;28;20062;-67
2023/12/19 14:36:46;;;;;;;3.35;2.40;;;;;;;;;;5023285;28;20516;-67
2023/12/19 14:39:15;;;;;;;2.55;2.05;;;;;;;;;;5020760;28;20554;-67
2023/12/19 14:41:43;;;;;;;2.67;2.00;;;;;;;;;;5018233;28;20049;-67